Home > Products > Valid Products > TAF

000
FTUS45 KBOI 271720
TAFBKE
TAF
KBKE 271720Z 2718/2818 VRB05KT P6SM SKC
     FM272300 31006KT P6SM SKC
     FM280300 VRB03KT P6SM SKC=



000
FTUS45 KBOI 271720
TAFBOI
TAF
KBOI 271720Z 2718/2818 32006KT P6SM SKC
     FM280300 13005KT P6SM SKC=



000
FTUS45 KBOI 271720
TAFBNO
TAF
KBNO 271720Z 2718/2818 19007KT P6SM SKC
     FM280300 27005KT P6SM SKC=



000
FTUS45 KBOI 271720
TAFTWF
TAF
KTWF 271720Z 2718/2818 30010KT P6SM SKC
     FM280300 19011KT P6SM SKC=



000
FTUS45 KBOI 271720
TAFBNO
TAF
KBNO 271720Z 2718/2818 19007KT P6SM SKC
     FM280300 27005KT P6SM SKC=



000
FTUS45 KBOI 271720
TAFBOI
TAF
KBOI 271720Z 2718/2818 32006KT P6SM SKC
     FM280300 13005KT P6SM SKC=



000
FTUS45 KBOI 271720
TAFMYL
TAF
KMYL 271720Z 2718/2818 22006KT P6SM SKC
     FM280300 VRB03KT P6SM SKC=



000
FTUS45 KBOI 271720
TAFBKE
TAF
KBKE 271720Z 2718/2818 VRB05KT P6SM SKC
     FM272300 31006KT P6SM SKC
     FM280300 VRB03KT P6SM SKC=



000
FTUS45 KBOI 271720
TAFJER
TAF
KJER 271720Z 2718/2818 25007KT P6SM SKC
     FM280400 11005KT P6SM SKC=



000
FTUS45 KBOI 271720
TAFMYL
TAF
KMYL 271720Z 2718/2818 22006KT P6SM SKC
     FM280300 VRB03KT P6SM SKC=



000
FTUS45 KBOI 271720
TAFJER
TAF
KJER 271720Z 2718/2818 25007KT P6SM SKC
     FM280400 11005KT P6SM SKC=



000
FTUS45 KBOI 271720
TAFTWF
TAF
KTWF 271720Z 2718/2818 30010KT P6SM SKC
     FM280300 19011KT P6SM SKC=



000
FTUS45 KBOI 271122
TAFTWF
TAF
KTWF 271122Z 2712/2812 17010KT P6SM SKC
     FM272100 30010KT P6SM SKC
     FM280400 19008KT P6SM SKC=



000
FTUS45 KBOI 271122
TAFMYL
TAF
KMYL 271122Z 2712/2812 VRB05KT P6SM SKC
     FM272100 22007KT P6SM SKC
     FM280300 VRB03KT P6SM SKC=



000
FTUS45 KBOI 271122
TAFBOI
TAF
KBOI 271122Z 2712/2812 13005KT P6SM SKC
     FM272100 32005KT P6SM SKC
     FM280300 13005KT P6SM SKC=



000
FTUS45 KBOI 271122
TAFBKE
TAF
KBKE 271122Z 2712/2812 VRB05KT P6SM SKC
     FM272300 31006KT P6SM SKC
     FM280300 VRB03KT P6SM SKC=



000
FTUS45 KBOI 271122
TAFBNO
TAF
KBNO 271122Z 2712/2812 VRB05KT P6SM SKC
     FM272100 19007KT P6SM SKC
     FM280300 30005KT P6SM SKC=



000
FTUS45 KBOI 271122
TAFJER
TAF
KJER 271122Z 2712/2812 VRB03KT P6SM SKC
     FM271800 25007KT P6SM SKC
     FM280500 12005KT P6SM SKC=



000
FTUS45 KBOI 271122
TAFJER
TAF
KJER 271122Z 2712/2812 VRB03KT P6SM SKC
     FM271800 25007KT P6SM SKC
     FM280500 12005KT P6SM SKC=



000
FTUS45 KBOI 271122
TAFMYL
TAF
KMYL 271122Z 2712/2812 VRB05KT P6SM SKC
     FM272100 22007KT P6SM SKC
     FM280300 VRB03KT P6SM SKC=



000
FTUS45 KBOI 271122
TAFTWF
TAF
KTWF 271122Z 2712/2812 17010KT P6SM SKC
     FM272100 30010KT P6SM SKC
     FM280400 19008KT P6SM SKC=



000
FTUS45 KBOI 271122
TAFBKE
TAF
KBKE 271122Z 2712/2812 VRB05KT P6SM SKC
     FM272300 31006KT P6SM SKC
     FM280300 VRB03KT P6SM SKC=



000
FTUS45 KBOI 271122
TAFBOI
TAF
KBOI 271122Z 2712/2812 13005KT P6SM SKC
     FM272100 32005KT P6SM SKC
     FM280300 13005KT P6SM SKC=



000
FTUS45 KBOI 271122
TAFBNO
TAF
KBNO 271122Z 2712/2812 VRB05KT P6SM SKC
     FM272100 19007KT P6SM SKC
     FM280300 30005KT P6SM SKC=



000
FTUS45 KBOI 270522
TAFBOI
TAF
KBOI 270522Z 2706/2806 13005KT P6SM SKC
     FM272100 32005KT P6SM SKC
     FM280300 13005KT P6SM SKC=



000
FTUS45 KBOI 270522
TAFBNO
TAF
KBNO 270522Z 2706/2806 VRB05KT P6SM SKC
     FM272100 19007KT P6SM SKC
     FM280300 31005KT P6SM SKC=



000
FTUS45 KBOI 270522
TAFTWF
TAF
KTWF 270522Z 2706/2806 19008KT P6SM SKC
     FM272100 30010KT P6SM SKC
     FM280300 19008KT P6SM SKC=



000
FTUS45 KBOI 270522
TAFJER
TAF
KJER 270522Z 2706/2806 07005KT P6SM SKC
     FM271800 25007KT P6SM SKC
     FM280300 19005KT P6SM SKC=



000
FTUS45 KBOI 270522
TAFBKE
TAF
KBKE 270522Z 2706/2806 VRB05KT P6SM SKC
     FM280000 30006KT P6SM SKC=



000
FTUS45 KBOI 270522
TAFMYL
TAF
KMYL 270522Z 2706/2806 VRB05KT P6SM SKC=



000
FTUS45 KBOI 270522
TAFBOI
TAF
KBOI 270522Z 2706/2806 13005KT P6SM SKC
     FM272100 32005KT P6SM SKC
     FM280300 13005KT P6SM SKC=



000
FTUS45 KBOI 270522
TAFMYL
TAF
KMYL 270522Z 2706/2806 VRB05KT P6SM SKC=



000
FTUS45 KBOI 270522
TAFBKE
TAF
KBKE 270522Z 2706/2806 VRB05KT P6SM SKC
     FM280000 30006KT P6SM SKC=



000
FTUS45 KBOI 270522
TAFJER
TAF
KJER 270522Z 2706/2806 07005KT P6SM SKC
     FM271800 25007KT P6SM SKC
     FM280300 19005KT P6SM SKC=



000
FTUS45 KBOI 270522
TAFBNO
TAF
KBNO 270522Z 2706/2806 VRB05KT P6SM SKC
     FM272100 19007KT P6SM SKC
     FM280300 31005KT P6SM SKC=



000
FTUS45 KBOI 270522
TAFTWF
TAF
KTWF 270522Z 2706/2806 19008KT P6SM SKC
     FM272100 30010KT P6SM SKC
     FM280300 19008KT P6SM SKC=



000
FTUS45 KBOI 262340
TAFBKE
TAF
KBKE 262340Z 2700/2724 VRB05KT P6SM FEW200=



000
FTUS45 KBOI 262340
TAFMYL
TAF
KMYL 262340Z 2700/2724 VRB05KT P6SM FEW200
     FM272100 21005KT P6SM SKC=



000
FTUS45 KBOI 262340
TAFJER
TAF
KJER 262340Z 2700/2724 07005KT P6SM FEW100 SCT200
     FM271800 25007KT P6SM FEW200=



000
FTUS45 KBOI 262340
TAFBKE
TAF
KBKE 262340Z 2700/2724 VRB05KT P6SM FEW200=



000
FTUS45 KBOI 262340
TAFBNO
TAF
KBNO 262340Z 2700/2724 15005KT P6SM FEW200
     FM270300 27005KT P6SM SKC
     FM272100 19005KT P6SM SKC=



000
FTUS45 KBOI 262340
TAFJER
TAF
KJER 262340Z 2700/2724 07005KT P6SM FEW100 SCT200
     FM271800 25007KT P6SM FEW200=



000
FTUS45 KBOI 262340
TAFMYL
TAF
KMYL 262340Z 2700/2724 VRB05KT P6SM FEW200
     FM272100 21005KT P6SM SKC=



000
FTUS45 KBOI 262340
TAFBOI
TAF
KBOI 262340Z 2700/2724 32006KT P6SM SCT100
     FM270400 13005KT P6SM SKC
     FM272100 32005KT P6SM SKC=



000
FTUS45 KBOI 262340
TAFTWF
TAF
KTWF 262340Z 2700/2724 34006KT P6SM SCT100 BKN200
     FM270300 19008KT P6SM FEW100 SCT200
     FM272100 30010KT P6SM FEW200=



000
FTUS45 KBOI 262340
TAFBNO
TAF
KBNO 262340Z 2700/2724 15005KT P6SM FEW200
     FM270300 27005KT P6SM SKC
     FM272100 19005KT P6SM SKC=



000
FTUS45 KBOI 262340
TAFTWF
TAF
KTWF 262340Z 2700/2724 34006KT P6SM SCT100 BKN200
     FM270300 19008KT P6SM FEW100 SCT200
     FM272100 30010KT P6SM FEW200=



000
FTUS45 KBOI 262340
TAFBOI
TAF
KBOI 262340Z 2700/2724 32006KT P6SM SCT100
     FM270400 13005KT P6SM SKC
     FM272100 32005KT P6SM SKC=



000
FTUS45 KBOI 261720
TAFBOI
TAF
KBOI 261720Z 2618/2718 VRB03KT P6SM FEW100
     FM262000 32006KT P6SM SCT100
     FM270400 13005KT P6SM SKC=



000
FTUS45 KBOI 261720
TAFBNO
TAF
KBNO 261720Z 2618/2718 VRB05KT P6SM FEW100=



000
FTUS45 KBOI 261720
TAFTWF
TAF
KTWF 261720Z 2618/2718 VRB05KT P6SM FEW100
     FM262100 34006KT P6SM SCT100 BKN200
     FM270300 19008KT P6SM FEW100 SCT200=



000
FTUS45 KBOI 261720
TAFJER
TAF
KJER 261720Z 2618/2718 VRB05KT P6SM FEW100 SCT200=



000
FTUS45 KBOI 261720
TAFTWF
TAF
KTWF 261720Z 2618/2718 VRB05KT P6SM FEW100
     FM262100 34006KT P6SM SCT100 BKN200
     FM270300 19008KT P6SM FEW100 SCT200=



000
FTUS45 KBOI 261720
TAFJER
TAF
KJER 261720Z 2618/2718 VRB05KT P6SM FEW100 SCT200=



000
FTUS45 KBOI 261720
TAFBOI
TAF
KBOI 261720Z 2618/2718 VRB03KT P6SM FEW100
     FM262000 32006KT P6SM SCT100
     FM270400 13005KT P6SM SKC=



000
FTUS45 KBOI 261720
TAFBKE
TAF
KBKE 261720Z 2618/2718 VRB05KT P6SM FEW100=



000
FTUS45 KBOI 261720
TAFBNO
TAF
KBNO 261720Z 2618/2718 VRB05KT P6SM FEW100=



000
FTUS45 KBOI 261720
TAFMYL
TAF
KMYL 261720Z 2618/2718 VRB03KT P6SM FEW100=



000
FTUS45 KBOI 261720
TAFMYL
TAF
KMYL 261720Z 2618/2718 VRB03KT P6SM FEW100=



000
FTUS45 KBOI 261720
TAFBKE
TAF
KBKE 261720Z 2618/2718 VRB05KT P6SM FEW100=



000
FTUS45 KBOI 261120
TAFJER
TAF
KJER 261120Z 2612/2712 VRB05KT P6SM SKC=



000
FTUS45 KBOI 261120
TAFBKE
TAF
KBKE 261120Z 2612/2712 VRB05KT P6SM SKC=



000
FTUS45 KBOI 261120
TAFTWF
TAF
KTWF 261120Z 2612/2712 18008KT P6SM SKC
     FM261900 02006KT P6SM SCT200
     FM270400 19007KT P6SM SKC=



000
FTUS45 KBOI 261120
TAFBOI
TAF
KBOI 261120Z 2612/2712 VRB03KT P6SM FEW120
     FM262000 32006KT P6SM SCT200
     FM270400 14005KT P6SM SKC=



000
FTUS45 KBOI 261120
TAFMYL
TAF
KMYL 261120Z 2612/2712 VRB03KT P6SM SKC=



000
FTUS45 KBOI 261120
TAFJER
TAF
KJER 261120Z 2612/2712 VRB05KT P6SM SKC=



000
FTUS45 KBOI 261120
TAFBNO
TAF
KBNO 261120Z 2612/2712 VRB05KT P6SM SKC=



000
FTUS45 KBOI 261120
TAFMYL
TAF
KMYL 261120Z 2612/2712 VRB03KT P6SM SKC=



000
FTUS45 KBOI 261120
TAFBNO
TAF
KBNO 261120Z 2612/2712 VRB05KT P6SM SKC=



000
FTUS45 KBOI 261120
TAFBOI
TAF
KBOI 261120Z 2612/2712 VRB03KT P6SM FEW120
     FM262000 32006KT P6SM SCT200
     FM270400 14005KT P6SM SKC=



000
FTUS45 KBOI 261120
TAFBKE
TAF
KBKE 261120Z 2612/2712 VRB05KT P6SM SKC=



000
FTUS45 KBOI 261120
TAFTWF
TAF
KTWF 261120Z 2612/2712 18008KT P6SM SKC
     FM261900 02006KT P6SM SCT200
     FM270400 19007KT P6SM SKC=



000
FTUS45 KBOI 260520
TAFTWF
TAF
KTWF 260520Z 2606/2706 16006KT P6SM BKN090
     FM261600 05006KT P6SM SCT200
     FM270400 18006KT P6SM SKC=



000
FTUS45 KBOI 260520
TAFBKE
TAF
KBKE 260520Z 2606/2706 VRB03KT P6SM SKC=



000
FTUS45 KBOI 260520
TAFBOI
TAF
KBOI 260520Z 2606/2706 13005KT P6SM SCT060 BKN090
     FM261800 32006KT P6SM SCT200
     FM270400 14004KT P6SM SKC=



000
FTUS45 KBOI 260520
TAFBKE
TAF
KBKE 260520Z 2606/2706 VRB03KT P6SM SKC=



000
FTUS45 KBOI 260520
TAFMYL
TAF
KMYL 260520Z 2606/2706 VRB03KT P6SM SCT150=



000
FTUS45 KBOI 260520
TAFTWF
TAF
KTWF 260520Z 2606/2706 16006KT P6SM BKN090
     FM261600 05006KT P6SM SCT200
     FM270400 18006KT P6SM SKC=



000
FTUS45 KBOI 260520
TAFJER
TAF
KJER 260520Z 2606/2706 09005KT P6SM BKN090
     FM261600 07005KT P6SM SCT200=



000
FTUS45 KBOI 260520
TAFBNO
TAF
KBNO 260520Z 2606/2706 VRB03KT P6SM SKC=



000
FTUS45 KBOI 260520
TAFBOI
TAF
KBOI 260520Z 2606/2706 13005KT P6SM SCT060 BKN090
     FM261800 32006KT P6SM SCT200
     FM270400 14004KT P6SM SKC=



000
FTUS45 KBOI 260520
TAFMYL
TAF
KMYL 260520Z 2606/2706 VRB03KT P6SM SCT150=



000
FTUS45 KBOI 260520
TAFJER
TAF
KJER 260520Z 2606/2706 09005KT P6SM BKN090
     FM261600 07005KT P6SM SCT200=



000
FTUS45 KBOI 260520
TAFBNO
TAF
KBNO 260520Z 2606/2706 VRB03KT P6SM SKC=



000
FTUS45 KBOI 252325
TAFMYL
TAF
KMYL 252325Z 2600/2624 VRB05KT P6SM VCSH SCT100 BKN150
     FM260400 VRB03KT P6SM SCT150=



000
FTUS45 KBOI 252325
TAFBOI
TAF
KBOI 252325Z 2600/2624 15008KT P6SM VCSH BKN090
     FM260300 13005KT P6SM SCT060 BKN090
     FM261800 32005KT P6SM SCT200=



000
FTUS45 KBOI 252325
TAFJER
TAF
KJER 252325Z 2600/2624 08006KT P6SM VCTS SCT060CB BKN090
     FM260100 08006KT P6SM VCSH SCT050 BKN090
     FM260600 09005KT P6SM BKN090
     FM261600 07005KT P6SM SCT200=



000
FTUS45 KBOI 252325
TAFBNO
TAF
KBNO 252325Z 2600/2624 VRB03KT P6SM FEW100 SCT200
     FM260600 VRB03KT P6SM SKC=



000
FTUS45 KBOI 252325
TAFBOI
TAF
KBOI 252325Z 2600/2624 15008KT P6SM VCSH BKN090
     FM260300 13005KT P6SM SCT060 BKN090
     FM261800 32005KT P6SM SCT200=



000
FTUS45 KBOI 252325
TAFJER
TAF
KJER 252325Z 2600/2624 08006KT P6SM VCTS SCT060CB BKN090
     FM260100 08006KT P6SM VCSH SCT050 BKN090
     FM260600 09005KT P6SM BKN090
     FM261600 07005KT P6SM SCT200=



000
FTUS45 KBOI 252325
TAFBKE
TAF
KBKE 252325Z 2600/2624 32008KT P6SM FEW100
     FM260300 VRB03KT P6SM SKC
     FM261800 32006KT P6SM SKC=



000
FTUS45 KBOI 252325
TAFBKE
TAF
KBKE 252325Z 2600/2624 32008KT P6SM FEW100
     FM260300 VRB03KT P6SM SKC
     FM261800 32006KT P6SM SKC=



000
FTUS45 KBOI 252325
TAFBNO
TAF
KBNO 252325Z 2600/2624 VRB03KT P6SM FEW100 SCT200
     FM260600 VRB03KT P6SM SKC=



000
FTUS45 KBOI 252325
TAFMYL
TAF
KMYL 252325Z 2600/2624 VRB05KT P6SM VCSH SCT100 BKN150
     FM260400 VRB03KT P6SM SCT150=



000
FTUS45 KBOI 252325
TAFTWF
TAF
KTWF 252325Z 2600/2624 04007KT P6SM VCTS SCT060CB BKN090
     FM260100 15006KT P6SM VCSH SCT050 BKN090
     FM260600 16006KT P6SM BKN090
     FM261600 05006KT P6SM SCT200=



000
FTUS45 KBOI 252325
TAFTWF
TAF
KTWF 252325Z 2600/2624 04007KT P6SM VCTS SCT060CB BKN090
     FM260100 15006KT P6SM VCSH SCT050 BKN090
     FM260600 16006KT P6SM BKN090
     FM261600 05006KT P6SM SCT200=



000
FTUS45 KBOI 252059 AAA
TAFTWF
TAF AMD
KTWF 252059Z 2521/2618 06012KT P6SM VCTS SCT060CB BKN090
     FM260100 15006KT P6SM VCSH SCT050 BKN090
     FM260600 VRB06KT P6SM BKN090=



000
FTUS45 KBOI 252059 AAA
TAFTWF
TAF AMD
KTWF 252059Z 2521/2618 06012KT P6SM VCTS SCT060CB BKN090
     FM260100 15006KT P6SM VCSH SCT050 BKN090
     FM260600 VRB06KT P6SM BKN090=



000
FTUS45 KBOI 252040 AAA
TAFBOI
TAF AMD
KBOI 252040Z 2521/2618 15008KT P6SM VCSH BKN090
     FM260300 VRB06KT P6SM SCT060 BKN090=



000
FTUS45 KBOI 252040 AAA
TAFBOI
TAF AMD
KBOI 252040Z 2521/2618 15008KT P6SM VCSH BKN090
     FM260300 VRB06KT P6SM SCT060 BKN090=



000
FTUS45 KBOI 251720
TAFJER
TAF
KJER 251720Z 2518/2618 08006KT P6SM VCSH FEW040 BKN080
     FM252000 08006KT P6SM VCTS SCT060CB BKN090
     FM260100 08006KT P6SM VCSH SCT050 BKN090
     FM260600 09005KT P6SM BKN090=



000
FTUS45 KBOI 251720
TAFTWF
TAF
KTWF 251720Z 2518/2618 08007KT P6SM VCSH FEW040 BKN080
     FM252000 08009KT P6SM VCTS SCT060CB BKN090
     FM260100 15006KT P6SM VCSH SCT050 BKN090
     FM260600 VRB06KT P6SM BKN090=



000
FTUS45 KBOI 251720
TAFBOI
TAF
KBOI 251720Z 2518/2618 15013KT P6SM BKN090
     FM252000 29010KT P6SM VCTS FEW070CB BKN090
     FM260300 VRB06KT P6SM SCT060 BKN090=



000
FTUS45 KBOI 251720
TAFBOI
TAF
KBOI 251720Z 2518/2618 15013KT P6SM BKN090
     FM252000 29010KT P6SM VCTS FEW070CB BKN090
     FM260300 VRB06KT P6SM SCT060 BKN090=



000
FTUS45 KBOI 251720
TAFBNO
TAF
KBNO 251720Z 2518/2618 VRB05KT P6SM FEW100 SCT200
     FM252100 33009KT P6SM FEW100 SCT200
     FM260600 27005KT P6SM SKC=



000
FTUS45 KBOI 251720
TAFBKE
TAF
KBKE 251720Z 2518/2618 VRB03KT P6SM SKC
     FM252100 32008KT P6SM FEW100
     FM260300 VRB03KT P6SM SKC=



000
FTUS45 KBOI 251720
TAFMYL
TAF
KMYL 251720Z 2518/2618 VRB03KT P6SM SCT100
     FM252000 30005KT P6SM VCTS SCT050CB BKN090
     FM260400 VRB03KT P6SM BKN090=



000
FTUS45 KBOI 251720
TAFJER
TAF
KJER 251720Z 2518/2618 08006KT P6SM VCSH FEW040 BKN080
     FM252000 08006KT P6SM VCTS SCT060CB BKN090
     FM260100 08006KT P6SM VCSH SCT050 BKN090
     FM260600 09005KT P6SM BKN090=



000
FTUS45 KBOI 251720
TAFTWF
TAF
KTWF 251720Z 2518/2618 08007KT P6SM VCSH FEW040 BKN080
     FM252000 08009KT P6SM VCTS SCT060CB BKN090
     FM260100 15006KT P6SM VCSH SCT050 BKN090
     FM260600 VRB06KT P6SM BKN090=



000
FTUS45 KBOI 251429 AAC
TAFBKE
TAF AMD
KBKE 251429Z 2514/2612 VRB03KT P6SM SCT200
     FM251800 32007KT P6SM SCT200
     FM260600 VRB03KT P6SM SCT150=



000
FTUS45 KBOI 251429 AAC
TAFBKE
TAF AMD
KBKE 251429Z 2514/2612 VRB03KT P6SM SCT200
     FM251800 32007KT P6SM SCT200
     FM260600 VRB03KT P6SM SCT150=



000
FTUS45 KBOI 251309 AAB
TAFBKE
TAF AMD
KBKE 251309Z 2513/2612 VRB03KT 1SM BR SKC
     FM251500 VRB03KT P6SM SCT120 BKN200
     FM251800 32007KT P6SM SCT100 BKN150
     FM260600 VRB03KT P6SM SCT150=



000
FTUS45 KBOI 251309 AAB
TAFBKE
TAF AMD
KBKE 251309Z 2513/2612 VRB03KT 1SM BR SKC
     FM251500 VRB03KT P6SM SCT120 BKN200
     FM251800 32007KT P6SM SCT100 BKN150
     FM260600 VRB03KT P6SM SCT150=



000
FTUS45 KBOI 251308 AAA
TAFTWF
TAF AMD
KTWF 251308Z 2513/2612 03008KT P6SM VCSH SCT035 BKN080
      TEMPO 2513/2516 -SHRA OVC040
     FM251800 08012KT P6SM VCTS SCT060CB BKN100
     FM260000 09007KT P6SM VCSH SCT050 BKN100
     FM260600 17007KT P6SM SCT100=



000
FTUS45 KBOI 251308 AAA
TAFTWF
TAF AMD
KTWF 251308Z 2513/2612 03008KT P6SM VCSH SCT035 BKN080
      TEMPO 2513/2516 -SHRA OVC040
     FM251800 08012KT P6SM VCTS SCT060CB BKN100
     FM260000 09007KT P6SM VCSH SCT050 BKN100
     FM260600 17007KT P6SM SCT100=



000
FTUS45 KBOI 251307 AAB
TAFBOI
TAF AMD
KBOI 251307Z 2513/2612 16005KT P6SM VCSH BKN100
     FM252000 28008KT P6SM VCTS FEW080CB BKN120
     FM260000 35008KT P6SM VCSH SCT060 BKN100
     FM260600 13005KT P6SM SCT100=



000
FTUS45 KBOI 251307 AAB
TAFBOI
TAF AMD
KBOI 251307Z 2513/2612 16005KT P6SM VCSH BKN100
     FM252000 28008KT P6SM VCTS FEW080CB BKN120
     FM260000 35008KT P6SM VCSH SCT060 BKN100
     FM260600 13005KT P6SM SCT100=



000
FTUS45 KBOI 251204 AAA
TAFBKE
TAF AMD
KBKE 251204Z 2512/2612 00000KT 1SM BR VV001
     FM251500 VRB03KT P6SM SCT120 BKN200
     FM251800 32007KT P6SM SCT100 BKN150
     FM260600 VRB03KT P6SM SCT150=



000
FTUS45 KBOI 251204 AAA
TAFBKE
TAF AMD
KBKE 251204Z 2512/2612 00000KT 1SM BR VV001
     FM251500 VRB03KT P6SM SCT120 BKN200
     FM251800 32007KT P6SM SCT100 BKN150
     FM260600 VRB03KT P6SM SCT150=



000
FTUS45 KBOI 251138
TAFBNO
TAF
KBNO 251138Z 2512/2612 32005KT P6SM BKN200
     FM251800 35012G22KT P6SM SCT200
     FM260600 27005KT P6SM SKC=



000
FTUS45 KBOI 251138
TAFBKE
TAF
KBKE 251138Z 2512/2612 00000KT 1SM BR FEW002
     FM251500 VRB03KT P6SM SCT120 BKN200
     FM251800 32007KT P6SM SCT100 BKN150
     FM260600 VRB03KT P6SM SCT150=



000
FTUS45 KBOI 251138
TAFJER
TAF
KJER 251138Z 2512/2612 05010KT P6SM VCSH FEW060 BKN100
      TEMPO 2512/2516 -SHRA OVC050
     FM251800 08007KT P6SM VCTS SCT060CB BKN100
     FM260000 08005KT P6SM VCSH SCT050 BKN100
     FM260600 06005KT P6SM SCT100=



000
FTUS45 KBOI 251138
TAFBOI
TAF
KBOI 251138Z 2512/2612 07012KT P6SM VCSH SCT090
     FM252000 28008KT P6SM VCTS FEW080CB BKN120
     FM260000 35008KT P6SM VCSH SCT060 BKN100
     FM260600 13005KT P6SM SCT100=



000
FTUS45 KBOI 251138
TAFTWF
TAF
KTWF 251138Z 2512/2612 10012KT P6SM VCSH SCT060 BKN100
      TEMPO 2512/2516 -SHRA OVC050
     FM251800 08012KT P6SM VCTS SCT060CB BKN100
     FM260000 09007KT P6SM VCSH SCT050 BKN100
     FM260600 17007KT P6SM SCT100=



000
FTUS45 KBOI 251138
TAFMYL
TAF
KMYL 251138Z 2512/2612 VRB05KT P6SM SCT120
     FM251600 VRB05KT P6SM VCSH SCT050 BKN100
     FM252000 30005KT P6SM VCTS SCT050CB OVC090
     FM260600 VRB03KT P6SM SCT100=



000
FTUS45 KBOI 251138
TAFTWF
TAF
KTWF 251138Z 2512/2612 10012KT P6SM VCSH SCT060 BKN100
      TEMPO 2512/2516 -SHRA OVC050
     FM251800 08012KT P6SM VCTS SCT060CB BKN100
     FM260000 09007KT P6SM VCSH SCT050 BKN100
     FM260600 17007KT P6SM SCT100=



000
FTUS45 KBOI 251138
TAFBNO
TAF
KBNO 251138Z 2512/2612 32005KT P6SM BKN200
     FM251800 35012G22KT P6SM SCT200
     FM260600 27005KT P6SM SKC=



000
FTUS45 KBOI 251138
TAFBOI
TAF
KBOI 251138Z 2512/2612 07012KT P6SM VCSH SCT090
     FM252000 28008KT P6SM VCTS FEW080CB BKN120
     FM260000 35008KT P6SM VCSH SCT060 BKN100
     FM260600 13005KT P6SM SCT100=



000
FTUS45 KBOI 251138
TAFMYL
TAF
KMYL 251138Z 2512/2612 VRB05KT P6SM SCT120
     FM251600 VRB05KT P6SM VCSH SCT050 BKN100
     FM252000 30005KT P6SM VCTS SCT050CB OVC090
     FM260600 VRB03KT P6SM SCT100=



000
FTUS45 KBOI 251138
TAFBKE
TAF
KBKE 251138Z 2512/2612 00000KT 1SM BR FEW002
     FM251500 VRB03KT P6SM SCT120 BKN200
     FM251800 32007KT P6SM SCT100 BKN150
     FM260600 VRB03KT P6SM SCT150=



000
FTUS45 KBOI 251138
TAFJER
TAF
KJER 251138Z 2512/2612 05010KT P6SM VCSH FEW060 BKN100
      TEMPO 2512/2516 -SHRA OVC050
     FM251800 08007KT P6SM VCTS SCT060CB BKN100
     FM260000 08005KT P6SM VCSH SCT050 BKN100
     FM260600 06005KT P6SM SCT100=



000
FTUS45 KBOI 250846 CCA
TAFTWF
TAF COR
KTWF 250846Z 2509/2606 VRB06KT P6SM VCTS BKN100CB
      TEMPO 2509/2510 -TSRA BKN060CB
     FM251000 10006KT P6SM VCSH SCT060 BKN100
     FM251800 04007KT P6SM VCSH SCT060 BKN100=



000
FTUS45 KBOI 250846 CCA
TAFTWF
TAF COR
KTWF 250846Z 2509/2606 VRB06KT P6SM VCTS BKN100CB
      TEMPO 2509/2510 -TSRA BKN060CB
     FM251000 10006KT P6SM VCSH SCT060 BKN100
     FM251800 04007KT P6SM VCSH SCT060 BKN100=



000
FTUS45 KBOI 250845 AAA
TAFJER
TAF AMD
KJER 250845Z 2509/2606 09006KT P6SM VCTS FEW060 BKN120CB
      TEMPO 2509/2510 -TSRA BKN060CB OVC120
     FM251800 09007KT P6SM VCSH SCT060 BKN100=



000
FTUS45 KBOI 250845 AAA
TAFJER
TAF AMD
KJER 250845Z 2509/2606 09006KT P6SM VCTS FEW060 BKN120CB
      TEMPO 2509/2510 -TSRA BKN060CB OVC120
     FM251800 09007KT P6SM VCSH SCT060 BKN100=



000
FTUS45 KBOI 250843 AAA
TAFTWF
TAF AMD
KTWF 250843Z 2509/2606 VRB06KT P6SM BKN100
      TEMPO 2509/2510 -TSRA BKN060CB
     FM251000 10006KT P6SM VCSH SCT060 BKN100
     FM251800 04007KT P6SM SCT150=



000
FTUS45 KBOI 250843 AAA
TAFTWF
TAF AMD
KTWF 250843Z 2509/2606 VRB06KT P6SM BKN100
      TEMPO 2509/2510 -TSRA BKN060CB
     FM251000 10006KT P6SM VCSH SCT060 BKN100
     FM251800 04007KT P6SM SCT150=



000
FTUS45 KBOI 250742 AAB
TAFBOI
TAF AMD
KBOI 250742Z 2508/2606 14005KT P6SM VCSH BKN090
     FM252000 30010KT P6SM VCSH FEW080 BKN120=



000
FTUS45 KBOI 250742 AAB
TAFBOI
TAF AMD
KBOI 250742Z 2508/2606 14005KT P6SM VCSH BKN090
     FM252000 30010KT P6SM VCSH FEW080 BKN120=



000
FTUS45 KBOI 250540 AAA
TAFBOI
TAF AMD
KBOI 250540Z 2506/2606 14005KT P6SM -TSRA SCT050 OVC100CB
      TEMPO 2506/2507 VRB25KT 5SM TSRA BKN040CB OVC100
     FM250900 31006KT P6SM SCT100 BKN150=



000
FTUS45 KBOI 250540 AAA
TAFBOI
TAF AMD
KBOI 250540Z 2506/2606 14005KT P6SM -TSRA SCT050 OVC100CB
      TEMPO 2506/2507 VRB25KT 5SM TSRA BKN040CB OVC100
     FM250900 31006KT P6SM SCT100 BKN150=



000
FTUS45 KBOI 250521
TAFBKE
TAF
KBKE 250521Z 2506/2606 VRB05KT P6SM VCSH SCT040 BKN100
     FM251800 30006KT P6SM SCT100 BKN150=



000
FTUS45 KBOI 250521
TAFBOI
TAF
KBOI 250521Z 2506/2606 14005KT P6SM SCT060 OVC100
      TEMPO 2506/2507 VRB25KT 6SM TSRA BKN060CB OVC100
     FM250900 31006KT P6SM SCT100 BKN150=



000
FTUS45 KBOI 250521
TAFBNO
TAF
KBNO 250521Z 2506/2606 34008KT P6SM OVC050
     FM251200 VRB05KT P6SM SCT050 SCT200
     FM251800 34009KT P6SM SCT200=



000
FTUS45 KBOI 250521
TAFTWF
TAF
KTWF 250521Z 2506/2606 19006KT P6SM VCTS SCT060CB BKN100
     FM250900 17007KT P6SM SCT100 BKN150
     FM251800 27009KT P6SM SCT150=



000
FTUS45 KBOI 250521
TAFJER
TAF
KJER 250521Z 2506/2606 08005KT P6SM VCSH SCT060 BKN100
     FM250900 09006KT P6SM SCT100 BKN150=



000
FTUS45 KBOI 250521
TAFMYL
TAF
KMYL 250521Z 2506/2606 VRB05KT P6SM FEW040 BKN080
     FM251400 30007KT P6SM BKN100=



000
FTUS45 KBOI 250521
TAFMYL
TAF
KMYL 250521Z 2506/2606 VRB05KT P6SM FEW040 BKN080
     FM251400 30007KT P6SM BKN100=



000
FTUS45 KBOI 250521
TAFTWF
TAF
KTWF 250521Z 2506/2606 19006KT P6SM VCTS SCT060CB BKN100
     FM250900 17007KT P6SM SCT100 BKN150
     FM251800 27009KT P6SM SCT150=



000
FTUS45 KBOI 250521
TAFBKE
TAF
KBKE 250521Z 2506/2606 VRB05KT P6SM VCSH SCT040 BKN100
     FM251800 30006KT P6SM SCT100 BKN150=



000
FTUS45 KBOI 250521
TAFJER
TAF
KJER 250521Z 2506/2606 08005KT P6SM VCSH SCT060 BKN100
     FM250900 09006KT P6SM SCT100 BKN150=



000
FTUS45 KBOI 250521
TAFBNO
TAF
KBNO 250521Z 2506/2606 34008KT P6SM OVC050
     FM251200 VRB05KT P6SM SCT050 SCT200
     FM251800 34009KT P6SM SCT200=



000
FTUS45 KBOI 250521
TAFBOI
TAF
KBOI 250521Z 2506/2606 14005KT P6SM SCT060 OVC100
      TEMPO 2506/2507 VRB25KT 6SM TSRA BKN060CB OVC100
     FM250900 31006KT P6SM SCT100 BKN150=



000
FTUS45 KBOI 250455 AAA
TAFTWF
TAF AMD
KTWF 250455Z 2505/2524 VRB05KT P6SM SCT120 BKN200
      TEMPO 2505/2506 VRB20KT P6SM -TSRA BKN050CB OVC120
     FM250600 19006KT P6SM VCSH SCT060 BKN100
     FM250900 17007KT P6SM SCT100 BKN150
     FM251800 27009KT P6SM SCT150=



000
FTUS45 KBOI 250455 AAA
TAFTWF
TAF AMD
KTWF 250455Z 2505/2524 VRB05KT P6SM SCT120 BKN200
      TEMPO 2505/2506 VRB20KT P6SM -TSRA BKN050CB OVC120
     FM250600 19006KT P6SM VCSH SCT060 BKN100
     FM250900 17007KT P6SM SCT100 BKN150
     FM251800 27009KT P6SM SCT150=



000
FTUS45 KBOI 250439 AAA
TAFBOI
TAF AMD
KBOI 250439Z 2505/2524 14005KT P6SM VCSH SCT060 OVC100
      TEMPO 2505/2507 VRB25KT 6SM TSRA BKN060CB OVC100
     FM250900 31006KT P6SM SCT100 BKN150=



000
FTUS45 KBOI 242336
TAFBKE
TAF
KBKE 242336Z 2500/2524 VRB05KT P6SM VCTS SCT040CB OVC080
     FM250300 VRB05KT P6SM VCSH SCT040 BKN100
     FM251800 30006KT P6SM SCT100 BKN150=



000
FTUS45 KBOI 242336
TAFBNO
TAF
KBNO 242336Z 2500/2524 34008KT P6SM OVC050
     FM251200 VRB05KT P6SM SCT050 SCT200
     FM251800 34009KT P6SM SCT200=



000
FTUS45 KBOI 242336
TAFBOI
TAF
KBOI 242336Z 2500/2524 34006KT P6SM FEW100 BKN150
     FM250500 14005KT P6SM VCSH SCT060 OVC100
     FM250900 31006KT P6SM SCT100 BKN150=



000
FTUS45 KBOI 242336
TAFMYL
TAF
KMYL 242336Z 2500/2524 33005KT P6SM VCTS SCT040CB BKN050
     FM250400 VRB05KT P6SM FEW040 BKN080
     FM251400 30007KT P6SM BKN100=



000
FTUS45 KBOI 242336
TAFJER
TAF
KJER 242336Z 2500/2524 VRB05KT P6SM SCT120 BKN200
     FM250600 08005KT P6SM VCSH SCT060 BKN100
     FM250900 09006KT P6SM SCT100 BKN150=



000
FTUS45 KBOI 242336
TAFTWF
TAF
KTWF 242336Z 2500/2524 VRB05KT P6SM SCT120 BKN200
     FM250600 19006KT P6SM VCSH SCT060 BKN100
     FM250900 17007KT P6SM SCT100 BKN150
     FM251800 27009KT P6SM SCT150=



000
FTUS45 KBOI 242336
TAFBNO
TAF
KBNO 242336Z 2500/2524 34008KT P6SM OVC050
     FM251200 VRB05KT P6SM SCT050 SCT200
     FM251800 34009KT P6SM SCT200=



000
FTUS45 KBOI 242336
TAFMYL
TAF
KMYL 242336Z 2500/2524 33005KT P6SM VCTS SCT040CB BKN050
     FM250400 VRB05KT P6SM FEW040 BKN080
     FM251400 30007KT P6SM BKN100=



000
FTUS45 KBOI 242336
TAFBOI
TAF
KBOI 242336Z 2500/2524 34006KT P6SM FEW100 BKN150
     FM250500 14005KT P6SM VCSH SCT060 OVC100
     FM250900 31006KT P6SM SCT100 BKN150=



000
FTUS45 KBOI 242336
TAFBKE
TAF
KBKE 242336Z 2500/2524 VRB05KT P6SM VCTS SCT040CB OVC080
     FM250300 VRB05KT P6SM VCSH SCT040 BKN100
     FM251800 30006KT P6SM SCT100 BKN150=



000
FTUS45 KBOI 242336
TAFTWF
TAF
KTWF 242336Z 2500/2524 VRB05KT P6SM SCT120 BKN200
     FM250600 19006KT P6SM VCSH SCT060 BKN100
     FM250900 17007KT P6SM SCT100 BKN150
     FM251800 27009KT P6SM SCT150=



000
FTUS45 KBOI 242336
TAFJER
TAF
KJER 242336Z 2500/2524 VRB05KT P6SM SCT120 BKN200
     FM250600 08005KT P6SM VCSH SCT060 BKN100
     FM250900 09006KT P6SM SCT100 BKN150=



000
FTUS45 KBOI 242038 AAA
TAFBKE
TAF AMD
KBKE 242038Z 2421/2518 VRB05KT P6SM VCTS SCT040CB OVC080
     FM250200 VRB05KT P6SM VCSH SCT040 BKN100=



000
FTUS45 KBOI 242038 AAA
TAFBKE
TAF AMD
KBKE 242038Z 2421/2518 VRB05KT P6SM VCTS SCT040CB OVC080
     FM250200 VRB05KT P6SM VCSH SCT040 BKN100=



    US Dept of Commerce
    National Oceanic and Atmospheric Administration
    National Weather Service
    1325 East West Highway
    Silver Spring, MD 20910
    Page Author: NWS Internet Services Team
Disclaimer
Information Quality
Credits
Glossary
Privacy Policy
Freedom of Information Act (FOIA)
About Us
Career Opportunities